Time;durP1;ratioP1;P1;durP2;ratioP2;P2;SDS_P1;SDS_P2;PMS_P1;PMS_P2;Temp;Humidity;BMP_temperature;BMP_pressure;BME280_temperature;BME280_humidity;BME280_pressure;Samples;Min_cycle;Max_cycle;Signal;HPM_P1;HPM_P2
2021/05/09 00:02:26;;;;;;;22.63;13.50;;;;;;;;;;4943325;28;20028;-56
2021/05/09 00:04:52;;;;;;;21.40;13.00;;;;;;;;;;4943086;28;20039;-56
2021/05/09 00:07:19;;;;;;;18.30;11.07;;;;;;;;;;4942754;28;20051;-56
2021/05/09 00:09:45;;;;;;;16.05;10.82;;;;;;;;;;4943332;28;20137;-55
2021/05/09 00:12:11;;;;;;;17.38;11.07;;;;;;;;;;4942566;28;20106;-53
2021/05/09 00:14:38;;;;;;;17.48;11.05;;;;;;;;;;4942837;28;20037;-52
2021/05/09 00:17:04;;;;;;;19.75;10.95;;;;;;;;;;4942824;28;20054;-53
2021/05/09 00:19:30;;;;;;;19.17;11.55;;;;;;;;;;4942348;28;20031;-52
2021/05/09 00:21:56;;;;;;;27.70;16.20;;;;;;;;;;4955233;28;20109;-57
2021/05/09 00:24:27;;;;;;;21.50;13.15;;;;;;;;;;4993530;28;20101;-57
2021/05/09 00:26:53;;;;;;;32.63;20.83;;;;;;;;;;4993480;28;20030;-56
2021/05/09 00:29:19;;;;;;;26.92;17.08;;;;;;;;;;4993785;28;20415;-55
2021/05/09 00:31:45;;;;;;;20.60;13.80;;;;;;;;;;4993607;28;20076;-58
2021/05/09 00:34:11;;;;;;;21.20;13.18;;;;;;;;;;4993360;28;20033;-57
2021/05/09 00:36:37;;;;;;;23.48;13.60;;;;;;;;;;4993480;28;20030;-57
2021/05/09 00:39:04;;;;;;;19.08;12.90;;;;;;;;;;4993919;28;20101;-57
2021/05/09 00:41:30;;;;;;;23.63;15.07;;;;;;;;;;4997084;28;20030;-53
2021/05/09 00:43:56;;;;;;;34.25;20.73;;;;;;;;;;4997144;28;20478;-58
2021/05/09 00:46:22;;;;;;;29.27;14.05;;;;;;;;;;4997131;28;20080;-51
2021/05/09 00:48:50;;;;;;;29.23;15.65;;;;;;;;;;4997343;28;20027;-58
2021/05/09 00:51:16;;;;;;;29.60;15.98;;;;;;;;;;4997371;28;20030;-58
2021/05/09 00:53:43;;;;;;;28.20;18.25;;;;;;;;;;4997159;28;20026;-58
2021/05/09 00:56:14;;;;;;;25.30;14.93;;;;;;;;;;4996956;28;20030;-58
2021/05/09 00:58:48;;;;;;;29.13;15.10;;;;;;;;;;4997081;28;20019;-54
2021/05/09 01:01:14;;;;;;;30.00;16.63;;;;;;;;;;4996893;28;20030;-58
2021/05/09 01:03:42;;;;;;;37.53;19.58;;;;;;;;;;4996626;28;20037;-58
2021/05/09 01:06:09;;;;;;;37.67;20.10;;;;;;;;;;4997041;28;20037;-59
2021/05/09 01:08:35;;;;;;;28.08;17.27;;;;;;;;;;4996303;28;20038;-58
2021/05/09 01:11:05;;;;;;;27.02;16.83;;;;;;;;;;4996765;28;20106;-58
2021/05/09 01:13:32;;;;;;;28.73;17.10;;;;;;;;;;4996614;28;20022;-56
2021/05/09 01:16:00;;;;;;;28.77;16.20;;;;;;;;;;4996484;28;20026;-57
2021/05/09 01:18:26;;;;;;;33.13;17.15;;;;;;;;;;4996544;28;20038;-57
2021/05/09 01:20:53;;;;;;;28.80;14.88;;;;;;;;;;4996799;28;20023;-57
2021/05/09 01:23:19;;;;;;;22.80;15.25;;;;;;;;;;4996812;28;20494;-57
2021/05/09 01:25:45;;;;;;;29.05;16.45;;;;;;;;;;4996257;28;20042;-54
2021/05/09 01:28:11;;;;;;;30.10;17.48;;;;;;;;;;4996294;28;20086;-54
2021/05/09 01:30:37;;;;;;;29.33;17.08;;;;;;;;;;4996398;28;20479;-56
2021/05/09 01:33:04;;;;;;;31.60;19.38;;;;;;;;;;4996174;28;20019;-53
2021/05/09 01:35:30;;;;;;;27.55;18.02;;;;;;;;;;4996256;28;20026;-58
2021/05/09 01:37:56;;;;;;;30.88;18.92;;;;;;;;;;4996296;28;20027;-53
2021/05/09 01:40:22;;;;;;;33.13;19.67;;;;;;;;;;4996449;28;20479;-53
2021/05/09 01:42:49;;;;;;;32.63;19.67;;;;;;;;;;4996148;28;20113;-57
2021/05/09 01:45:15;;;;;;;31.85;19.13;;;;;;;;;;4996228;28;20038;-57
2021/05/09 01:47:42;;;;;;;34.22;20.48;;;;;;;;;;4996322;28;20073;-58
2021/05/09 01:50:16;;;;;;;36.33;19.27;;;;;;;;;;4995656;28;20042;-57
2021/05/09 01:52:42;;;;;;;33.92;19.75;;;;;;;;;;4995281;28;20030;-53
2021/05/09 01:55:09;;;;;;;35.60;19.88;;;;;;;;;;4995780;28;20065;-59
2021/05/09 01:57:36;;;;;;;37.63;20.70;;;;;;;;;;4995720;28;20031;-59
2021/05/09 02:00:05;;;;;;;30.98;19.52;;;;;;;;;;4995806;28;20117;-59
2021/05/09 02:02:31;;;;;;;36.90;20.20;;;;;;;;;;4995690;28;20603;-54
2021/05/09 02:04:57;;;;;;;32.63;18.70;;;;;;;;;;4995838;28;20026;-59
2021/05/09 02:07:23;;;;;;;30.95;18.02;;;;;;;;;;4995599;28;20120;-55
2021/05/09 02:09:50;;;;;;;31.48;18.02;;;;;;;;;;4995915;28;20022;-59
2021/05/09 02:12:16;;;;;;;35.78;19.55;;;;;;;;;;4995600;28;20022;-55
2021/05/09 02:14:42;;;;;;;36.83;21.20;;;;;;;;;;4995721;28;20448;-54
2021/05/09 02:17:08;;;;;;;38.55;21.70;;;;;;;;;;4995653;28;20371;-59
2021/05/09 02:19:34;;;;;;;44.80;23.95;;;;;;;;;;4995377;28;20563;-59
2021/05/09 02:22:00;;;;;;;41.33;25.10;;;;;;;;;;4995696;28;20033;-57
2021/05/09 02:24:27;;;;;;;48.38;26.05;;;;;;;;;;4995369;28;20076;-55
2021/05/09 02:26:55;;;;;;;43.38;25.17;;;;;;;;;;4995246;28;20023;-58
2021/05/09 02:29:21;;;;;;;44.08;23.40;;;;;;;;;;4995300;28;20038;-55
2021/05/09 02:31:47;;;;;;;35.17;21.77;;;;;;;;;;4995094;28;20426;-55
2021/05/09 02:34:14;;;;;;;35.55;20.65;;;;;;;;;;4995220;28;20019;-58
2021/05/09 02:36:42;;;;;;;38.85;21.20;;;;;;;;;;4995531;28;20037;-58
2021/05/09 02:39:08;;;;;;;35.85;19.73;;;;;;;;;;4995219;28;20027;-58
2021/05/09 02:41:34;;;;;;;33.65;16.38;;;;;;;;;;4994945;28;20027;-59
2021/05/09 02:44:02;;;;;;;32.78;14.75;;;;;;;;;;4995126;28;20590;-59
2021/05/09 02:46:30;;;;;;;26.50;14.77;;;;;;;;;;4994847;28;20058;-54
2021/05/09 02:48:57;;;;;;;26.77;14.70;;;;;;;;;;4995147;28;20468;-58
2021/05/09 02:51:23;;;;;;;23.38;14.20;;;;;;;;;;4994793;28;20118;-57
2021/05/09 02:53:49;;;;;;;27.27;14.30;;;;;;;;;;4994972;28;20475;-58
2021/05/09 02:56:15;;;;;;;24.15;13.02;;;;;;;;;;4994932;28;20023;-59
2021/05/09 02:58:41;;;;;;;26.90;13.30;;;;;;;;;;4994721;28;20027;-57
2021/05/09 03:01:07;;;;;;;25.88;12.88;;;;;;;;;;4994768;28;20109;-58
2021/05/09 03:03:33;;;;;;;26.98;12.85;;;;;;;;;;4995123;28;20026;-56
2021/05/09 03:05:59;;;;;;;27.52;13.50;;;;;;;;;;4994739;28;20482;-58
2021/05/09 03:08:25;;;;;;;25.90;12.48;;;;;;;;;;4994585;28;20050;-58
2021/05/09 03:10:51;;;;;;;29.73;14.77;;;;;;;;;;4994613;28;20027;-58
2021/05/09 03:13:17;;;;;;;34.28;14.88;;;;;;;;;;4994413;28;20364;-57
2021/05/09 03:15:44;;;;;;;26.92;14.35;;;;;;;;;;4994868;28;20382;-58
2021/05/09 03:18:12;;;;;;;28.15;15.30;;;;;;;;;;4994334;28;20026;-58
2021/05/09 03:20:38;;;;;;;28.33;15.23;;;;;;;;;;4994454;28;20035;-58
2021/05/09 03:23:05;;;;;;;30.08;15.18;;;;;;;;;;4994359;28;20394;-57
2021/05/09 03:25:31;;;;;;;27.13;14.63;;;;;;;;;;4994345;28;20081;-58
2021/05/09 03:27:58;;;;;;;30.02;13.68;;;;;;;;;;4994415;28;20019;-58
2021/05/09 03:30:24;;;;;;;31.13;15.55;;;;;;;;;;4994282;28;20359;-58
2021/05/09 03:32:50;;;;;;;31.10;14.70;;;;;;;;;;4994126;28;20058;-58
2021/05/09 03:35:16;;;;;;;30.45;15.55;;;;;;;;;;4994362;28;20105;-59
2021/05/09 03:37:42;;;;;;;33.83;16.50;;;;;;;;;;4994260;28;20023;-54
2021/05/09 03:40:09;;;;;;;33.13;16.60;;;;;;;;;;4994438;28;20533;-58
2021/05/09 03:42:35;;;;;;;36.15;18.00;;;;;;;;;;4994268;28;20106;-54
2021/05/09 03:45:01;;;;;;;33.58;17.45;;;;;;;;;;4994039;28;20065;-58
2021/05/09 03:47:28;;;;;;;35.58;16.52;;;;;;;;;;4993869;28;20034;-57
2021/05/09 03:49:54;;;;;;;35.90;16.00;;;;;;;;;;4994008;28;20030;-57
2021/05/09 03:52:20;;;;;;;31.13;16.42;;;;;;;;;;4994331;28;20513;-58
2021/05/09 03:54:46;;;;;;;33.03;15.52;;;;;;;;;;4994166;28;20057;-58
2021/05/09 03:57:12;;;;;;;36.15;17.27;;;;;;;;;;4993910;28;20034;-58
2021/05/09 03:59:39;;;;;;;32.70;16.10;;;;;;;;;;4994108;28;20022;-59
2021/05/09 04:02:05;;;;;;;33.40;15.73;;;;;;;;;;4993803;28;20386;-59
2021/05/09 04:04:31;;;;;;;31.92;15.77;;;;;;;;;;4993790;28;20101;-58
2021/05/09 04:06:57;;;;;;;33.10;15.35;;;;;;;;;;4993751;28;20057;-59
2021/05/09 04:09:25;;;;;;;32.42;15.68;;;;;;;;;;4993733;28;20034;-54
2021/05/09 04:11:51;;;;;;;38.63;15.68;;;;;;;;;;4993865;28;20084;-59
2021/05/09 04:14:18;;;;;;;31.45;14.88;;;;;;;;;;4994433;28;20014;-58
2021/05/09 04:16:44;;;;;;;33.35;15.10;;;;;;;;;;4997539;28;20034;-56
2021/05/09 04:19:10;;;;;;;30.98;14.30;;;;;;;;;;4997889;28;20023;-54
2021/05/09 04:21:36;;;;;;;34.78;17.23;;;;;;;;;;4997631;28;20030;-59
2021/05/09 04:24:02;;;;;;;28.90;15.90;;;;;;;;;;4997723;28;20434;-61
2021/05/09 04:26:28;;;;;;;35.38;19.88;;;;;;;;;;4997573;28;20030;-58
2021/05/09 04:28:54;;;;;;;36.92;17.33;;;;;;;;;;4997606;28;20387;-58
2021/05/09 04:31:20;;;;;;;38.35;18.13;;;;;;;;;;4997746;28;20077;-59
2021/05/09 04:33:46;;;;;;;38.90;19.38;;;;;;;;;;4997553;28;20618;-58
2021/05/09 04:36:12;;;;;;;35.03;16.35;;;;;;;;;;4997627;28;20027;-57
2021/05/09 04:38:39;;;;;;;33.67;17.90;;;;;;;;;;4997559;28;20041;-57
2021/05/09 04:41:07;;;;;;;29.85;15.43;;;;;;;;;;4980445;28;20031;-57
2021/05/09 04:43:34;;;;;;;31.80;15.05;;;;;;;;;;4968139;28;20392;-56
2021/05/09 04:46:00;;;;;;;32.38;16.83;;;;;;;;;;4967811;28;20070;-57
2021/05/09 04:48:27;;;;;;;31.35;15.93;;;;;;;;;;4966483;28;20352;-58
2021/05/09 04:50:53;;;;;;;35.30;18.33;;;;;;;;;;4968268;28;20033;-57
2021/05/09 04:53:30;;;;;;;29.73;16.35;;;;;;;;;;4967743;28;20027;-57
2021/05/09 04:55:57;;;;;;;31.42;16.40;;;;;;;;;;4967461;28;20090;-58
2021/05/09 04:58:24;;;;;;;26.70;15.68;;;;;;;;;;4966501;28;20054;-57
2021/05/09 05:00:51;;;;;;;34.55;16.95;;;;;;;;;;4968254;28;20031;-57
2021/05/09 05:03:20;;;;;;;28.13;16.10;;;;;;;;;;4967577;28;20075;-58
2021/05/09 05:05:46;;;;;;;36.22;18.73;;;;;;;;;;4966380;28;20102;-56
2021/05/09 05:08:14;;;;;;;32.25;17.60;;;;;;;;;;4967890;28;20043;-57
2021/05/09 05:10:40;;;;;;;32.70;16.33;;;;;;;;;;4967837;28;20468;-58
2021/05/09 05:13:22;;;;;;;27.85;16.20;;;;;;;;;;4966155;28;20070;-57
2021/05/09 05:15:48;;;;;;;31.02;16.45;;;;;;;;;;4966022;28;20476;-56
2021/05/09 05:18:14;;;;;;;30.95;15.98;;;;;;;;;;4967300;28;20030;-56
2021/05/09 05:20:41;;;;;;;33.78;17.02;;;;;;;;;;4967464;28;20055;-55
2021/05/09 05:23:07;;;;;;;28.52;16.38;;;;;;;;;;4965921;28;20055;-57
2021/05/09 05:25:33;;;;;;;36.63;17.27;;;;;;;;;;4967073;28;20041;-55
2021/05/09 05:28:09;;;;;;;29.95;16.10;;;;;;;;;;4967020;28;20062;-57
2021/05/09 05:30:36;;;;;;;34.80;16.48;;;;;;;;;;4967161;28;20786;-54
2021/05/09 05:33:02;;;;;;;36.03;15.98;;;;;;;;;;4975925;28;20478;-58
2021/05/09 05:35:29;;;;;;;31.08;16.17;;;;;;;;;;4976980;28;20365;-58
2021/05/09 05:37:55;;;;;;;34.58;16.38;;;;;;;;;;4976960;28;20023;-59
2021/05/09 05:40:27;;;;;;;38.28;17.08;;;;;;;;;;4976781;28;20037;-53
2021/05/09 05:42:53;;;;;;;30.73;15.05;;;;;;;;;;4976586;28;20065;-54
2021/05/09 05:45:19;;;;;;;30.35;16.10;;;;;;;;;;4976916;28;20042;-57
2021/05/09 05:47:45;;;;;;;28.60;15.13;;;;;;;;;;4976621;28;20370;-57
2021/05/09 05:50:12;;;;;;;29.23;15.32;;;;;;;;;;4976687;28;20033;-57
2021/05/09 05:52:38;;;;;;;30.98;14.43;;;;;;;;;;4977374;28;20027;-57
2021/05/09 05:55:05;;;;;;;27.50;14.27;;;;;;;;;;4976445;28;20073;-57
2021/05/09 05:57:31;;;;;;;25.75;13.95;;;;;;;;;;4976437;28;20526;-58
2021/05/09 05:59:57;;;;;;;25.80;12.93;;;;;;;;;;4976433;28;20030;-57
2021/05/09 06:02:23;;;;;;;22.83;13.13;;;;;;;;;;4976546;28;20084;-57
2021/05/09 06:04:49;;;;;;;28.23;13.50;;;;;;;;;;4976237;28;20025;-57
2021/05/09 06:07:18;;;;;;;27.83;12.68;;;;;;;;;;4976299;28;20062;-55
2021/05/09 06:09:47;;;;;;;23.48;13.07;;;;;;;;;;4976248;28;20049;-58
2021/05/09 06:12:13;;;;;;;28.13;12.18;;;;;;;;;;4976223;28;20031;-56
2021/05/09 06:14:39;;;;;;;23.52;12.35;;;;;;;;;;4975891;28;20559;-57
2021/05/09 06:17:06;;;;;;;23.95;12.18;;;;;;;;;;4958254;28;20403;-59
2021/05/09 06:19:34;;;;;;;19.23;11.20;;;;;;;;;;4976176;28;20062;-59
2021/05/09 06:22:00;;;;;;;25.85;12.10;;;;;;;;;;4976074;28;20023;-58
2021/05/09 06:24:26;;;;;;;27.45;11.75;;;;;;;;;;4976151;28;20037;-57
2021/05/09 06:26:52;;;;;;;19.52;10.70;;;;;;;;;;4975996;28;20031;-59
2021/05/09 06:29:21;;;;;;;21.05;10.68;;;;;;;;;;4975821;28;20034;-58
2021/05/09 06:31:47;;;;;;;21.30;11.20;;;;;;;;;;4976157;28;20023;-58
2021/05/09 06:34:13;;;;;;;18.92;9.32;;;;;;;;;;4975774;28;20027;-59
2021/05/09 06:36:39;;;;;;;18.33;8.73;;;;;;;;;;4975425;28;20027;-59
2021/05/09 06:39:06;;;;;;;18.77;9.40;;;;;;;;;;4975474;28;20030;-56
2021/05/09 06:41:34;;;;;;;17.80;8.73;;;;;;;;;;4975893;28;20122;-57
2021/05/09 06:44:03;;;;;;;15.93;8.23;;;;;;;;;;4975345;28;20031;-58
2021/05/09 06:46:29;;;;;;;16.85;7.72;;;;;;;;;;4975354;28;20121;-58
2021/05/09 06:48:55;;;;;;;15.73;7.55;;;;;;;;;;4975748;28;20117;-57
2021/05/09 06:51:23;;;;;;;22.20;10.13;;;;;;;;;;4975752;28;20023;-58
2021/05/09 06:53:49;;;;;;;20.52;11.32;;;;;;;;;;4975576;28;20030;-56
2021/05/09 06:56:15;;;;;;;20.17;7.90;;;;;;;;;;4975485;28;20033;-59
2021/05/09 06:58:41;;;;;;;15.10;7.18;;;;;;;;;;4975284;28;20018;-59
2021/05/09 07:01:08;;;;;;;21.35;8.07;;;;;;;;;;4975334;28;20033;-59
2021/05/09 07:03:34;;;;;;;17.92;7.18;;;;;;;;;;4975644;28;20050;-60
2021/05/09 07:06:00;;;;;;;15.40;6.93;;;;;;;;;;4975362;28;20073;-60
2021/05/09 07:08:26;;;;;;;18.45;7.07;;;;;;;;;;4975122;28;20050;-59
2021/05/09 07:10:52;;;;;;;17.85;8.07;;;;;;;;;;4975183;28;20031;-60
2021/05/09 07:13:18;;;;;;;20.52;8.40;;;;;;;;;;4975096;28;20022;-58
2021/05/09 07:15:45;;;;;;;21.98;8.50;;;;;;;;;;4975201;28;20023;-58
2021/05/09 07:18:14;;;;;;;20.48;7.75;;;;;;;;;;4974903;28;20026;-58
2021/05/09 07:20:43;;;;;;;25.25;8.68;;;;;;;;;;4975160;28;20045;-58
2021/05/09 07:23:11;;;;;;;19.77;7.85;;;;;;;;;;4975066;28;20153;-60
2021/05/09 07:25:37;;;;;;;16.02;7.28;;;;;;;;;;4974875;28;20399;-55
2021/05/09 07:28:11;;;;;;;18.55;7.95;;;;;;;;;;4974846;28;20022;-59
2021/05/09 07:30:37;;;;;;;20.35;7.60;;;;;;;;;;4975006;28;20019;-56
2021/05/09 07:33:04;;;;;;;20.42;8.02;;;;;;;;;;4974945;28;20033;-58
2021/05/09 07:35:30;;;;;;;16.30;7.18;;;;;;;;;;4974888;28;20023;-59
2021/05/09 07:37:56;;;;;;;19.35;8.15;;;;;;;;;;4974844;28;20026;-62
2021/05/09 07:40:23;;;;;;;21.65;10.32;;;;;;;;;;4974774;28;20050;-57
2021/05/09 07:42:49;;;;;;;31.00;15.40;;;;;;;;;;4974575;28;20027;-55
2021/05/09 07:45:19;;;;;;;99.80;59.95;;;;;;;;;;4974547;28;20035;-53
2021/05/09 07:47:46;;;;;;;18.88;9.80;;;;;;;;;;4974391;28;20039;-49
2021/05/09 07:50:13;;;;;;;21.42;8.93;;;;;;;;;;4974595;28;20037;-66
2021/05/09 07:52:39;;;;;;;19.45;9.60;;;;;;;;;;4974666;28;20085;-61
2021/05/09 07:55:06;;;;;;;16.38;8.40;;;;;;;;;;4974461;28;20037;-59
2021/05/09 07:57:32;;;;;;;15.73;8.45;;;;;;;;;;4974503;28;20440;-52
2021/05/09 08:00:00;;;;;;;20.75;7.90;;;;;;;;;;4974350;28;20078;-55
2021/05/09 08:02:26;;;;;;;17.52;8.60;;;;;;;;;;4974550;28;20022;-56
2021/05/09 08:04:53;;;;;;;44.85;22.58;;;;;;;;;;4974530;28;20081;-50
2021/05/09 08:07:19;;;;;;;140.02;98.18;;;;;;;;;;4974248;28;20094;-53
2021/05/09 08:09:45;;;;;;;24.98;12.50;;;;;;;;;;4974329;28;20039;-50
2021/05/09 08:12:14;;;;;;;54.22;24.05;;;;;;;;;;4974342;28;20119;-51
2021/05/09 08:14:40;;;;;;;23.30;10.13;;;;;;;;;;4974207;28;20023;-51
2021/05/09 08:17:06;;;;;;;14.27;7.93;;;;;;;;;;4974245;28;20364;-52
2021/05/09 08:19:32;;;;;;;15.10;8.65;;;;;;;;;;4965165;28;20042;-53
2021/05/09 08:21:58;;;;;;;13.77;8.48;;;;;;;;;;4963701;28;20020;-53
2021/05/09 08:24:24;;;;;;;16.10;8.02;;;;;;;;;;4963830;28;20035;-54
2021/05/09 08:26:51;;;;;;;17.50;9.75;;;;;;;;;;4964916;28;20039;-55
2021/05/09 08:29:17;;;;;;;18.70;7.22;;;;;;;;;;4962990;28;20483;-54
2021/05/09 08:31:43;;;;;;;14.65;6.22;;;;;;;;;;4963691;28;20507;-55
2021/05/09 08:34:09;;;;;;;18.45;9.85;;;;;;;;;;4964684;28;20042;-54
2021/05/09 08:36:35;;;;;;;32.28;16.75;;;;;;;;;;4962728;28;20031;-54
2021/05/09 08:39:01;;;;;;;18.80;9.75;;;;;;;;;;4964753;28;20098;-54
2021/05/09 08:41:28;;;;;;;30.65;13.90;;;;;;;;;;4963674;28;20019;-54
2021/05/09 08:43:54;;;;;;;16.08;8.27;;;;;;;;;;4964999;28;20034;-54
2021/05/09 08:46:21;;;;;;;20.50;10.77;;;;;;;;;;4962812;28;20035;-54
2021/05/09 08:48:48;;;;;;;14.57;7.45;;;;;;;;;;4963713;28;20023;-54
2021/05/09 08:51:15;;;;;;;21.25;10.32;;;;;;;;;;4964759;28;20030;-55
2021/05/09 08:53:43;;;;;;;26.98;14.27;;;;;;;;;;4963030;28;20023;-54
2021/05/09 08:56:09;;;;;;;21.52;11.35;;;;;;;;;;4963124;28;20069;-55
2021/05/09 08:58:38;;;;;;;13.18;7.05;;;;;;;;;;4964600;28;20030;-53
2021/05/09 09:01:04;;;;;;;28.30;16.48;;;;;;;;;;4965009;28;20026;-53
2021/05/09 09:03:31;;;;;;;13.93;7.28;;;;;;;;;;4966693;28;20023;-53
2021/05/09 09:05:57;;;;;;;15.35;8.77;;;;;;;;;;4967898;28;20045;-54
2021/05/09 09:08:23;;;;;;;13.88;8.52;;;;;;;;;;4966489;28;20047;-53
2021/05/09 09:10:51;;;;;;;13.43;7.57;;;;;;;;;;4966590;28;20106;-53
2021/05/09 09:13:27;;;;;;;11.93;4.93;;;;;;;;;;4967990;28;20022;-52
2021/05/09 09:15:56;;;;;;;9.07;5.57;;;;;;;;;;4968101;28;20019;-53
2021/05/09 09:18:39;;;;;;;10.88;5.47;;;;;;;;;;4966538;28;20027;-53
2021/05/09 09:21:22;;;;;;;9.80;4.80;;;;;;;;;;4966738;28;20054;-53
2021/05/09 09:23:48;;;;;;;10.88;5.68;;;;;;;;;;4967182;28;20042;-53
2021/05/09 09:26:31;;;;;;;22.20;12.23;;;;;;;;;;4965979;28;20043;-53
2021/05/09 09:28:58;;;;;;;10.48;4.95;;;;;;;;;;4965742;28;20027;-53
2021/05/09 09:31:41;;;;;;;11.68;5.50;;;;;;;;;;4967165;28;20395;-54
2021/05/09 09:34:07;;;;;;;14.27;6.82;;;;;;;;;;4966777;28;20480;-52
2021/05/09 09:36:34;;;;;;;26.33;16.05;;;;;;;;;;4965725;28;20029;-52
2021/05/09 09:39:00;;;;;;;8.43;4.57;;;;;;;;;;4966271;28;20492;-52
2021/05/09 09:41:26;;;;;;;22.00;12.38;;;;;;;;;;4966298;28;20031;-55
2021/05/09 09:44:08;;;;;;;14.10;7.95;;;;;;;;;;4965102;28;20078;-53
2021/05/09 09:46:38;;;;;;;15.43;7.78;;;;;;;;;;4967163;28;20537;-55
2021/05/09 09:49:05;;;;;;;16.08;7.10;;;;;;;;;;4966084;28;20026;-54
2021/05/09 09:51:47;;;;;;;31.48;12.15;;;;;;;;;;4965680;28;20098;-56
2021/05/09 09:54:32;;;;;;;28.48;18.50;;;;;;;;;;4947524;28;20487;-56
2021/05/09 09:56:59;;;;;;;22.45;11.02;;;;;;;;;;4965224;28;20499;-56
2021/05/09 09:59:25;;;;;;;9.20;4.72;;;;;;;;;;4966394;28;20019;-53
2021/05/09 10:01:52;;;;;;;25.75;8.18;;;;;;;;;;4955273;28;20153;-52
2021/05/09 10:04:18;;;;;;;17.67;7.95;;;;;;;;;;4947118;28;20037;-51
2021/05/09 10:06:44;;;;;;;22.17;10.48;;;;;;;;;;4946049;28;20119;-53
2021/05/09 10:09:10;;;;;;;16.45;7.63;;;;;;;;;;4946110;28;20535;-52
2021/05/09 10:11:37;;;;;;;13.85;6.60;;;;;;;;;;4945241;28;20139;-50
2021/05/09 10:14:04;;;;;;;22.50;9.73;;;;;;;;;;4945604;28;20523;-50
2021/05/09 10:16:34;;;;;;;14.35;6.18;;;;;;;;;;4945851;28;20443;-51
2021/05/09 10:19:03;;;;;;;8.52;4.20;;;;;;;;;;4947518;28;20029;-51
2021/05/09 10:21:32;;;;;;;19.42;9.10;;;;;;;;;;4946069;28;20035;-50
2021/05/09 10:24:15;;;;;;;22.67;10.70;;;;;;;;;;4947364;28;20027;-54
2021/05/09 10:26:47;;;;;;;7.97;4.75;;;;;;;;;;4945629;28;20043;-53
2021/05/09 10:29:31;;;;;;;12.93;4.80;;;;;;;;;;4945671;28;20015;-53
2021/05/09 10:31:57;;;;;;;10.70;5.05;;;;;;;;;;4945583;28;20145;-50
2021/05/09 10:34:49;;;;;;;12.73;4.40;;;;;;;;;;4946927;28;20035;-50
2021/05/09 10:37:39;;;;;;;11.50;4.20;;;;;;;;;;4917039;28;20043;-50
2021/05/09 10:40:23;;;;;;;10.50;4.72;;;;;;;;;;4945456;28;20059;-50
2021/05/09 10:43:12;;;;;;;8.77;3.80;;;;;;;;;;4946811;28;20039;-54
2021/05/09 10:45:41;;;;;;;10.45;5.95;;;;;;;;;;4946706;28;20015;-50
2021/05/09 10:48:24;;;;;;;6.57;3.47;;;;;;;;;;4945152;28;20042;-51
2021/05/09 10:50:57;;;;;;;9.02;4.78;;;;;;;;;;4945418;28;20031;-52
2021/05/09 10:53:31;;;;;;;10.23;4.03;;;;;;;;;;4945334;28;20023;-50
2021/05/09 10:56:02;;;;;;;11.25;5.57;;;;;;;;;;4946282;28;20514;-53
2021/05/09 10:58:45;;;;;;;42.08;4.00;;;;;;;;;;4945272;28;20034;-50
2021/05/09 11:01:14;;;;;;;5.30;3.40;;;;;;;;;;4944913;28;20030;-51
2021/05/09 11:03:40;;;;;;;7.28;2.70;;;;;;;;;;4945346;28;20038;-54
2021/05/09 11:06:16;;;;;;;6.18;2.97;;;;;;;;;;4944858;28;20114;-53
2021/05/09 11:08:53;;;;;;;5.70;2.72;;;;;;;;;;4945083;28;20039;-56
2021/05/09 11:11:20;;;;;;;8.45;3.55;;;;;;;;;;4927814;28;20031;-55
2021/05/09 11:14:13;;;;;;;8.15;3.38;;;;;;;;;;4927930;28;20084;-56
2021/05/09 11:16:40;;;;;;;6.45;3.42;;;;;;;;;;4942955;28;20036;-51
2021/05/09 11:19:06;;;;;;;5.65;3.10;;;;;;;;;;4945637;28;20031;-55
2021/05/09 11:21:35;;;;;;;5.72;2.60;;;;;;;;;;4944857;28;20027;-51
2021/05/09 11:24:04;;;;;;;4.57;2.95;;;;;;;;;;4944610;28;20074;-50
2021/05/09 11:26:31;;;;;;;7.20;3.10;;;;;;;;;;4944689;28;20066;-57
2021/05/09 11:29:13;;;;;;;5.43;3.30;;;;;;;;;;4944870;28;20034;-50
2021/05/09 11:31:41;;;;;;;6.32;2.60;;;;;;;;;;4944905;28;20057;-55
2021/05/09 11:34:07;;;;;;;9.48;3.83;;;;;;;;;;4944551;28;20070;-54
2021/05/09 11:36:34;;;;;;;5.35;2.55;;;;;;;;;;4945626;28;20074;-51
2021/05/09 11:39:14;;;;;;;4.93;2.35;;;;;;;;;;4945623;28;20019;-49
2021/05/09 11:41:49;;;;;;;4.40;2.47;;;;;;;;;;4944733;28;20038;-52
2021/05/09 11:44:15;;;;;;;9.70;2.30;;;;;;;;;;4944907;28;20472;-48
2021/05/09 11:46:41;;;;;;;4.82;2.60;;;;;;;;;;4944579;28;20043;-48
2021/05/09 11:49:37;;;;;;;6.20;2.55;;;;;;;;;;4944516;28;20781;-51
2021/05/09 11:52:07;;;;;;;4.88;2.45;;;;;;;;;;4866622;29;20079;-49
2021/05/09 11:54:43;;;;;;;3.28;2.00;;;;;;;;;;4865859;29;20059;-53
2021/05/09 11:57:10;;;;;;;3.45;1.95;;;;;;;;;;4866600;29;20048;-53
2021/05/09 11:59:48;;;;;;;3.47;2.40;;;;;;;;;;4865978;29;20032;-52
2021/05/09 12:02:18;;;;;;;8.27;2.65;;;;;;;;;;4866106;29;20843;-51
2021/05/09 12:05:04;;;;;;;4.78;2.20;;;;;;;;;;4861101;29;20521;-50
2021/05/09 12:07:35;;;;;;;3.80;2.65;;;;;;;;;;4865755;29;20063;-52
2021/05/09 12:10:01;;;;;;;4.43;2.13;;;;;;;;;;4867373;29;20357;-49
2021/05/09 12:12:32;;;;;;;4.05;2.50;;;;;;;;;;4865963;29;20041;-50
2021/05/09 12:15:10;;;;;;;3.80;1.83;;;;;;;;;;4865597;29;20033;-55
2021/05/09 12:17:45;;;;;;;3.25;1.65;;;;;;;;;;4894303;29;20040;-56
2021/05/09 12:20:11;;;;;;;3.72;1.52;;;;;;;;;;4896094;29;20040;-58
2021/05/09 12:22:39;;;;;;;10.10;3.58;;;;;;;;;;4896001;29;20049;-56
2021/05/09 12:25:05;;;;;;;5.25;1.98;;;;;;;;;;4895901;29;20088;-58
2021/05/09 12:27:32;;;;;;;4.35;1.60;;;;;;;;;;4902749;29;20421;-58
2021/05/09 12:29:58;;;;;;;2.60;1.50;;;;;;;;;;4954974;29;20419;-56
2021/05/09 12:32:27;;;;;;;2.78;1.85;;;;;;;;;;4955082;28;20468;-56
2021/05/09 12:35:00;;;;;;;6.18;1.92;;;;;;;;;;4955037;28;20050;-57
2021/05/09 12:37:30;;;;;;;4.60;1.50;;;;;;;;;;4958774;29;20035;-56
2021/05/09 12:40:29;;;;;;;2.35;1.73;;;;;;;;;;4958745;29;20020;-56
2021/05/09 12:43:02;;;;;;;2.22;1.60;;;;;;;;;;4880909;29;20068;-52
2021/05/09 12:45:52;;;;;;;3.08;1.52;;;;;;;;;;4880759;29;20506;-52
2021/05/09 12:48:31;;;;;;;4.90;1.77;;;;;;;;;;4880673;29;20041;-56
2021/05/09 12:51:06;;;;;;;3.40;1.67;;;;;;;;;;4880685;29;20288;-54
2021/05/09 12:53:46;;;;;;;1.98;1.35;;;;;;;;;;4880590;29;20060;-57
2021/05/09 12:56:13;;;;;;;2.00;1.73;;;;;;;;;;4880926;29;20029;-57
2021/05/09 12:58:57;;;;;;;5.57;1.90;;;;;;;;;;4880673;29;20139;-56
2021/05/09 13:01:23;;;;;;;3.70;1.88;;;;;;;;;;4880668;29;20026;-56
2021/05/09 13:03:49;;;;;;;2.83;1.73;;;;;;;;;;4880501;29;20033;-57
2021/05/09 13:06:17;;;;;;;5.45;1.85;;;;;;;;;;4880403;29;20123;-56
2021/05/09 13:08:43;;;;;;;5.18;1.88;;;;;;;;;;4880434;29;20045;-57
2021/05/09 13:11:09;;;;;;;2.28;1.73;;;;;;;;;;4880458;29;20053;-51
2021/05/09 13:13:35;;;;;;;3.45;1.85;;;;;;;;;;4880340;29;20390;-57
2021/05/09 13:16:01;;;;;;;4.15;2.13;;;;;;;;;;4880332;29;20055;-56
2021/05/09 13:18:27;;;;;;;2.63;2.00;;;;;;;;;;4918013;29;20039;-56
2021/05/09 13:20:53;;;;;;;3.30;2.25;;;;;;;;;;4957856;29;20480;-57
2021/05/09 13:23:20;;;;;;;2.50;2.10;;;;;;;;;;4940582;29;20035;-50
2021/05/09 13:25:48;;;;;;;3.83;2.47;;;;;;;;;;4957943;29;20518;-56
2021/05/09 13:28:14;;;;;;;4.68;2.38;;;;;;;;;;4957954;29;20118;-56
2021/05/09 13:30:40;;;;;;;3.47;2.20;;;;;;;;;;4957669;29;20026;-55
2021/05/09 13:33:06;;;;;;;4.00;2.28;;;;;;;;;;4957938;29;20065;-55
2021/05/09 13:35:32;;;;;;;5.55;2.28;;;;;;;;;;4957686;29;20023;-55
2021/05/09 13:37:58;;;;;;;5.60;1.95;;;;;;;;;;4957641;29;20172;-50
2021/05/09 13:40:27;;;;;;;5.75;2.75;;;;;;;;;;4957731;29;20047;-56
2021/05/09 13:42:53;;;;;;;3.67;2.33;;;;;;;;;;4957811;28;20031;-56
2021/05/09 13:45:19;;;;;;;6.45;2.40;;;;;;;;;;4957709;29;20115;-56
2021/05/09 13:47:45;;;;;;;3.50;1.88;;;;;;;;;;4957749;28;20039;-55
2021/05/09 13:50:11;;;;;;;3.03;2.20;;;;;;;;;;4957434;28;20036;-51
2021/05/09 13:52:37;;;;;;;3.15;1.80;;;;;;;;;;4957429;29;20102;-57
2021/05/09 13:55:04;;;;;;;2.70;2.10;;;;;;;;;;4957363;29;20412;-57
2021/05/09 13:57:30;;;;;;;3.67;2.33;;;;;;;;;;4957510;28;20520;-57
2021/05/09 13:59:56;;;;;;;3.08;1.92;;;;;;;;;;4957405;29;20038;-56
2021/05/09 14:02:22;;;;;;;3.00;2.05;;;;;;;;;;4957770;29;20019;-51
2021/05/09 14:04:48;;;;;;;2.35;1.60;;;;;;;;;;4956995;28;20035;-56
2021/05/09 14:07:15;;;;;;;5.97;2.20;;;;;;;;;;4966395;28;20488;-56
2021/05/09 14:09:43;;;;;;;4.90;1.80;;;;;;;;;;4966631;28;20051;-55
2021/05/09 14:12:11;;;;;;;3.00;1.95;;;;;;;;;;4947885;28;20361;-56
2021/05/09 14:14:40;;;;;;;2.25;1.38;;;;;;;;;;4966248;28;20037;-50
2021/05/09 14:17:06;;;;;;;2.58;1.63;;;;;;;;;;4967408;28;20097;-55
2021/05/09 14:19:32;;;;;;;2.13;1.70;;;;;;;;;;4965337;28;20106;-54
2021/05/09 14:21:59;;;;;;;7.15;2.83;;;;;;;;;;4966208;28;20023;-55
2021/05/09 14:24:25;;;;;;;6.32;2.00;;;;;;;;;;4966757;28;20054;-53
2021/05/09 14:26:51;;;;;;;2.78;1.95;;;;;;;;;;4964678;28;20050;-55
2021/05/09 14:29:17;;;;;;;8.40;2.60;;;;;;;;;;4965854;28;20040;-54
2021/05/09 14:31:43;;;;;;;3.97;1.40;;;;;;;;;;4966311;28;20049;-50
2021/05/09 14:34:09;;;;;;;1.88;1.45;;;;;;;;;;4964667;28;20047;-55